Terminal Aerodrome Forecast
Issued by NWS

Home | Current Version | Previous Version | Text Only | Print | Product List | Glossary On
Versions: 1 2 3 4 5 6 7 8 9 10 11 12 13 14 15 16 17 18 19 20 21 22 23 24 25 26 27 28 29 30 31 32 33 34 35 36 37 38 39 40 41
000
FTUS44 KFWD 210527
TAFDAL
TAF
KDAL 210527Z 2106/2206 36017KT 5SM SHRA BR VCTS BKN008 OVC012CB
     FM210900 36018KT 5SM SHRA BKN009 OVC012
     FM211600 35016KT P6SM VCSH OVC007
     FM211900 35016KT 4SM -SHRA BR VCTS OVC007CB
     FM212300 35012KT 5SM BR VCSH OVC008
     FM220300 34011KT 4SM BR OVC006=

USA.gov is the U.S. government's official web portal to all federal, state and local government web resources and services.